sensor_id;sensor_type;location;lat;lon;timestamp;P1;durP1;ratioP1;P2;durP2;ratioP2
11245;SDS011;59870;50.106;8.580;2022-08-19T00:02:14;15.33;;;13.83;;
11245;SDS011;59870;50.106;8.580;2022-08-19T00:04:42;15.33;;;14.00;;
11245;SDS011;59870;50.106;8.580;2022-08-19T00:07:09;15.43;;;14.07;;
11245;SDS011;59870;50.106;8.580;2022-08-19T00:09:36;14.90;;;13.70;;
11245;SDS011;59870;50.106;8.580;2022-08-19T00:12:04;13.83;;;12.67;;
11245;SDS011;59870;50.106;8.580;2022-08-19T00:14:32;15.13;;;13.63;;
11245;SDS011;59870;50.106;8.580;2022-08-19T00:17:00;15.73;;;14.43;;
11245;SDS011;59870;50.106;8.580;2022-08-19T00:19:29;14.30;;;13.10;;
11245;SDS011;59870;50.106;8.580;2022-08-19T00:21:57;14.50;;;13.27;;
11245;SDS011;59870;50.106;8.580;2022-08-19T00:24:25;15.70;;;14.20;;
11245;SDS011;59870;50.106;8.580;2022-08-19T00:26:55;13.67;;;12.47;;
11245;SDS011;59870;50.106;8.580;2022-08-19T00:29:43;14.23;;;12.97;;
11245;SDS011;59870;50.106;8.580;2022-08-19T00:32:11;12.77;;;11.77;;
11245;SDS011;59870;50.106;8.580;2022-08-19T00:34:39;14.40;;;12.93;;
11245;SDS011;59870;50.106;8.580;2022-08-19T00:37:07;14.23;;;13.13;;
11245;SDS011;59870;50.106;8.580;2022-08-19T00:39:34;13.40;;;12.40;;
11245;SDS011;59870;50.106;8.580;2022-08-19T00:42:03;14.00;;;12.70;;
11245;SDS011;59870;50.106;8.580;2022-08-19T00:44:31;13.57;;;12.20;;
11245;SDS011;59870;50.106;8.580;2022-08-19T00:46:59;12.50;;;11.47;;
11245;SDS011;59870;50.106;8.580;2022-08-19T00:52:08;12.57;;;11.57;;
11245;SDS011;59870;50.106;8.580;2022-08-19T00:54:39;12.40;;;11.27;;
11245;SDS011;59870;50.106;8.580;2022-08-19T00:57:08;13.10;;;12.00;;
11245;SDS011;59870;50.106;8.580;2022-08-19T00:59:41;12.87;;;11.57;;
11245;SDS011;59870;50.106;8.580;2022-08-19T01:02:29;12.30;;;11.33;;
11245;SDS011;59870;50.106;8.580;2022-08-19T01:04:59;11.87;;;10.90;;
11245;SDS011;59870;50.106;8.580;2022-08-19T01:07:29;11.17;;;10.37;;
11245;SDS011;59870;50.106;8.580;2022-08-19T01:10:05;11.27;;;10.37;;
11245;SDS011;59870;50.106;8.580;2022-08-19T01:12:35;10.33;;;9.63;;
11245;SDS011;59870;50.106;8.580;2022-08-19T01:15:04;12.00;;;10.90;;
11245;SDS011;59870;50.106;8.580;2022-08-19T01:17:34;12.23;;;10.97;;
11245;SDS011;59870;50.106;8.580;2022-08-19T01:20:05;11.30;;;10.50;;
11245;SDS011;59870;50.106;8.580;2022-08-19T01:22:48;10.97;;;9.93;;
11245;SDS011;59870;50.106;8.580;2022-08-19T01:25:20;11.50;;;10.50;;
11245;SDS011;59870;50.106;8.580;2022-08-19T01:27:52;11.00;;;10.20;;
11245;SDS011;59870;50.106;8.580;2022-08-19T01:30:22;11.07;;;10.17;;
11245;SDS011;59870;50.106;8.580;2022-08-19T01:32:52;9.87;;;9.17;;
11245;SDS011;59870;50.106;8.580;2022-08-19T01:35:22;10.90;;;10.10;;
11245;SDS011;59870;50.106;8.580;2022-08-19T01:37:55;11.27;;;10.47;;
11245;SDS011;59870;50.106;8.580;2022-08-19T01:40:28;9.90;;;9.10;;
11245;SDS011;59870;50.106;8.580;2022-08-19T01:42:58;10.70;;;9.67;;
11245;SDS011;59870;50.106;8.580;2022-08-19T01:45:27;10.57;;;9.77;;
11245;SDS011;59870;50.106;8.580;2022-08-19T01:47:55;9.53;;;8.73;;
11245;SDS011;59870;50.106;8.580;2022-08-19T01:50:29;10.03;;;9.37;;
11245;SDS011;59870;50.106;8.580;2022-08-19T01:52:58;13.23;;;10.30;;
11245;SDS011;59870;50.106;8.580;2022-08-19T01:55:34;10.47;;;9.47;;
11245;SDS011;59870;50.106;8.580;2022-08-19T01:58:11;9.67;;;8.90;;
11245;SDS011;59870;50.106;8.580;2022-08-19T02:00:43;10.03;;;9.17;;
11245;SDS011;59870;50.106;8.580;2022-08-19T02:03:12;10.10;;;9.40;;
11245;SDS011;59870;50.106;8.580;2022-08-19T02:05:40;10.70;;;9.67;;
11245;SDS011;59870;50.106;8.580;2022-08-19T02:08:09;9.30;;;8.50;;
11245;SDS011;59870;50.106;8.580;2022-08-19T02:10:41;10.13;;;9.33;;
11245;SDS011;59870;50.106;8.580;2022-08-19T02:13:10;10.23;;;9.53;;
11245;SDS011;59870;50.106;8.580;2022-08-19T02:15:40;9.30;;;8.70;;
11245;SDS011;59870;50.106;8.580;2022-08-19T02:18:08;8.50;;;7.70;;
11245;SDS011;59870;50.106;8.580;2022-08-19T02:20:36;9.50;;;8.60;;
11245;SDS011;59870;50.106;8.580;2022-08-19T02:23:16;9.93;;;9.13;;
11245;SDS011;59870;50.106;8.580;2022-08-19T02:25:47;9.37;;;8.57;;
11245;SDS011;59870;50.106;8.580;2022-08-19T02:28:28;10.67;;;8.37;;
11245;SDS011;59870;50.106;8.580;2022-08-19T02:30:59;9.77;;;8.63;;
11245;SDS011;59870;50.106;8.580;2022-08-19T02:33:27;8.87;;;8.17;;
11245;SDS011;59870;50.106;8.580;2022-08-19T02:35:56;14.80;;;9.10;;
11245;SDS011;59870;50.106;8.580;2022-08-19T02:38:29;8.07;;;7.47;;
11245;SDS011;59870;50.106;8.580;2022-08-19T02:41:05;9.10;;;8.40;;
11245;SDS011;59870;50.106;8.580;2022-08-19T02:43:55;8.90;;;8.40;;
11245;SDS011;59870;50.106;8.580;2022-08-19T02:46:51;8.70;;;7.90;;
11245;SDS011;59870;50.106;8.580;2022-08-19T02:49:24;9.53;;;8.17;;
11245;SDS011;59870;50.106;8.580;2022-08-19T02:52:04;8.63;;;7.83;;
11245;SDS011;59870;50.106;8.580;2022-08-19T02:54:49;8.90;;;8.20;;
11245;SDS011;59870;50.106;8.580;2022-08-19T02:57:29;8.33;;;7.73;;
11245;SDS011;59870;50.106;8.580;2022-08-19T03:00:22;8.50;;;7.80;;
11245;SDS011;59870;50.106;8.580;2022-08-19T03:03:12;8.00;;;7.43;;
11245;SDS011;59870;50.106;8.580;2022-08-19T03:05:46;8.40;;;7.40;;
11245;SDS011;59870;50.106;8.580;2022-08-19T03:08:23;7.70;;;7.07;;
11245;SDS011;59870;50.106;8.580;2022-08-19T03:10:54;8.40;;;7.77;;
11245;SDS011;59870;50.106;8.580;2022-08-19T03:13:32;7.57;;;7.07;;
11245;SDS011;59870;50.106;8.580;2022-08-19T03:16:00;8.20;;;7.63;;
11245;SDS011;59870;50.106;8.580;2022-08-19T03:18:31;8.03;;;6.97;;
11245;SDS011;59870;50.106;8.580;2022-08-19T03:20:58;7.90;;;7.23;;
11245;SDS011;59870;50.106;8.580;2022-08-19T03:23:26;7.10;;;6.60;;
11245;SDS011;59870;50.106;8.580;2022-08-19T03:25:53;7.40;;;6.83;;
11245;SDS011;59870;50.106;8.580;2022-08-19T03:28:41;8.00;;;7.40;;
11245;SDS011;59870;50.106;8.580;2022-08-19T03:31:26;7.33;;;6.83;;
11245;SDS011;59870;50.106;8.580;2022-08-19T03:34:26;8.03;;;7.33;;
11245;SDS011;59870;50.106;8.580;2022-08-19T03:37:10;8.50;;;7.67;;
11245;SDS011;59870;50.106;8.580;2022-08-19T03:40:06;8.10;;;7.37;;
11245;SDS011;59870;50.106;8.580;2022-08-19T03:42:42;8.47;;;7.77;;
11245;SDS011;59870;50.106;8.580;2022-08-19T03:45:24;8.27;;;7.57;;
11245;SDS011;59870;50.106;8.580;2022-08-19T03:48:14;8.37;;;7.67;;
11245;SDS011;59870;50.106;8.580;2022-08-19T03:51:04;7.33;;;6.67;;
11245;SDS011;59870;50.106;8.580;2022-08-19T03:54:09;8.93;;;8.23;;
11245;SDS011;59870;50.106;8.580;2022-08-19T03:56:40;10.53;;;9.63;;
11245;SDS011;59870;50.106;8.580;2022-08-19T03:59:10;8.93;;;8.30;;
11245;SDS011;59870;50.106;8.580;2022-08-19T04:01:51;8.60;;;7.93;;
11245;SDS011;59870;50.106;8.580;2022-08-19T04:04:52;10.00;;;9.20;;
11245;SDS011;59870;50.106;8.580;2022-08-19T04:07:50;10.03;;;9.03;;
11245;SDS011;59870;50.106;8.580;2022-08-19T04:10:21;9.77;;;9.07;;
11245;SDS011;59870;50.106;8.580;2022-08-19T04:12:58;9.43;;;8.73;;
11245;SDS011;59870;50.106;8.580;2022-08-19T04:15:28;10.00;;;9.10;;
11245;SDS011;59870;50.106;8.580;2022-08-19T04:18:09;9.60;;;8.90;;
11245;SDS011;59870;50.106;8.580;2022-08-19T04:20:45;10.70;;;9.80;;
11245;SDS011;59870;50.106;8.580;2022-08-19T04:23:16;9.77;;;9.00;;
11245;SDS011;59870;50.106;8.580;2022-08-19T04:25:47;11.60;;;10.47;;
11245;SDS011;59870;50.106;8.580;2022-08-19T04:28:14;9.60;;;8.93;;
11245;SDS011;59870;50.106;8.580;2022-08-19T04:30:45;8.73;;;8.13;;
11245;SDS011;59870;50.106;8.580;2022-08-19T04:33:17;11.63;;;9.27;;
11245;SDS011;59870;50.106;8.580;2022-08-19T04:35:54;9.80;;;9.03;;
11245;SDS011;59870;50.106;8.580;2022-08-19T04:38:22;10.50;;;9.70;;
11245;SDS011;59870;50.106;8.580;2022-08-19T04:40:50;9.23;;;8.47;;
11245;SDS011;59870;50.106;8.580;2022-08-19T04:43:37;10.43;;;9.37;;
11245;SDS011;59870;50.106;8.580;2022-08-19T04:46:07;10.50;;;9.53;;
11245;SDS011;59870;50.106;8.580;2022-08-19T04:48:54;10.63;;;9.53;;
11245;SDS011;59870;50.106;8.580;2022-08-19T04:51:23;10.83;;;9.73;;
11245;SDS011;59870;50.106;8.580;2022-08-19T04:53:51;10.27;;;9.10;;
11245;SDS011;59870;50.106;8.580;2022-08-19T04:56:19;9.77;;;9.10;;
11245;SDS011;59870;50.106;8.580;2022-08-19T04:58:49;10.87;;;10.00;;
11245;SDS011;59870;50.106;8.580;2022-08-19T05:01:19;10.20;;;9.50;;
11245;SDS011;59870;50.106;8.580;2022-08-19T05:03:50;10.60;;;9.70;;
11245;SDS011;59870;50.106;8.580;2022-08-19T05:06:19;10.53;;;9.67;;
11245;SDS011;59870;50.106;8.580;2022-08-19T05:08:48;12.23;;;10.87;;
11245;SDS011;59870;50.106;8.580;2022-08-19T05:11:18;10.40;;;9.60;;
11245;SDS011;59870;50.106;8.580;2022-08-19T05:13:52;10.80;;;9.90;;
11245;SDS011;59870;50.106;8.580;2022-08-19T05:16:20;10.37;;;9.60;;
11245;SDS011;59870;50.106;8.580;2022-08-19T05:18:49;9.47;;;8.87;;
11245;SDS011;59870;50.106;8.580;2022-08-19T05:21:36;9.20;;;8.50;;
11245;SDS011;59870;50.106;8.580;2022-08-19T05:24:23;8.80;;;8.10;;
11245;SDS011;59870;50.106;8.580;2022-08-19T05:26:53;9.27;;;8.43;;
11245;SDS011;59870;50.106;8.580;2022-08-19T05:29:24;9.17;;;8.53;;
11245;SDS011;59870;50.106;8.580;2022-08-19T05:32:00;9.63;;;8.70;;
11245;SDS011;59870;50.106;8.580;2022-08-19T05:34:28;10.23;;;9.40;;
11245;SDS011;59870;50.106;8.580;2022-08-19T05:36:57;9.70;;;8.80;;
11245;SDS011;59870;50.106;8.580;2022-08-19T05:39:27;10.27;;;8.80;;
11245;SDS011;59870;50.106;8.580;2022-08-19T05:42:03;9.73;;;8.93;;
11245;SDS011;59870;50.106;8.580;2022-08-19T05:44:36;10.73;;;9.83;;
11245;SDS011;59870;50.106;8.580;2022-08-19T05:47:11;11.00;;;10.10;;
11245;SDS011;59870;50.106;8.580;2022-08-19T05:49:41;10.93;;;9.87;;
11245;SDS011;59870;50.106;8.580;2022-08-19T05:52:10;10.27;;;9.57;;
11245;SDS011;59870;50.106;8.580;2022-08-19T05:54:42;9.70;;;9.00;;
11245;SDS011;59870;50.106;8.580;2022-08-19T05:57:11;10.70;;;9.60;;
11245;SDS011;59870;50.106;8.580;2022-08-19T05:59:39;10.30;;;9.30;;
11245;SDS011;59870;50.106;8.580;2022-08-19T06:02:06;10.50;;;9.70;;
11245;SDS011;59870;50.106;8.580;2022-08-19T06:04:34;12.10;;;11.10;;
11245;SDS011;59870;50.106;8.580;2022-08-19T06:07:01;10.77;;;9.97;;
11245;SDS011;59870;50.106;8.580;2022-08-19T06:09:38;10.00;;;9.20;;
11245;SDS011;59870;50.106;8.580;2022-08-19T06:12:06;9.70;;;8.90;;
11245;SDS011;59870;50.106;8.580;2022-08-19T06:14:35;9.07;;;8.23;;
11245;SDS011;59870;50.106;8.580;2022-08-19T06:17:07;8.97;;;8.07;;
11245;SDS011;59870;50.106;8.580;2022-08-19T06:19:35;8.50;;;7.70;;
11245;SDS011;59870;50.106;8.580;2022-08-19T06:22:07;6.63;;;6.10;;
11245;SDS011;59870;50.106;8.580;2022-08-19T06:24:34;5.27;;;4.87;;
11245;SDS011;59870;50.106;8.580;2022-08-19T06:27:02;4.90;;;4.50;;
11245;SDS011;59870;50.106;8.580;2022-08-19T06:29:32;4.00;;;3.70;;
11245;SDS011;59870;50.106;8.580;2022-08-19T06:32:00;4.60;;;4.23;;
11245;SDS011;59870;50.106;8.580;2022-08-19T06:34:30;4.07;;;3.60;;
11245;SDS011;59870;50.106;8.580;2022-08-19T06:36:59;3.87;;;3.67;;
11245;SDS011;59870;50.106;8.580;2022-08-19T06:39:30;4.43;;;3.90;;
11245;SDS011;59870;50.106;8.580;2022-08-19T06:42:02;3.80;;;3.50;;
11245;SDS011;59870;50.106;8.580;2022-08-19T06:44:35;3.40;;;3.13;;
11245;SDS011;59870;50.106;8.580;2022-08-19T06:47:10;4.23;;;3.93;;
11245;SDS011;59870;50.106;8.580;2022-08-19T06:49:49;3.37;;;3.20;;
11245;SDS011;59870;50.106;8.580;2022-08-19T06:52:16;3.43;;;3.23;;
11245;SDS011;59870;50.106;8.580;2022-08-19T06:54:43;3.37;;;3.17;;
11245;SDS011;59870;50.106;8.580;2022-08-19T06:57:23;3.57;;;3.37;;
11245;SDS011;59870;50.106;8.580;2022-08-19T06:59:51;3.20;;;3.00;;
11245;SDS011;59870;50.106;8.580;2022-08-19T07:02:19;4.57;;;2.90;;
11245;SDS011;59870;50.106;8.580;2022-08-19T07:04:47;3.17;;;3.00;;
11245;SDS011;59870;50.106;8.580;2022-08-19T07:07:21;5.17;;;3.37;;
11245;SDS011;59870;50.106;8.580;2022-08-19T07:09:50;3.03;;;2.83;;
11245;SDS011;59870;50.106;8.580;2022-08-19T07:12:28;5.57;;;5.17;;
11245;SDS011;59870;50.106;8.580;2022-08-19T07:15:02;7.53;;;7.03;;
11245;SDS011;59870;50.106;8.580;2022-08-19T07:17:31;6.00;;;5.43;;
11245;SDS011;59870;50.106;8.580;2022-08-19T07:20:01;10.13;;;6.10;;
11245;SDS011;59870;50.106;8.580;2022-08-19T07:22:31;5.47;;;4.97;;
11245;SDS011;59870;50.106;8.580;2022-08-19T07:25:00;5.30;;;4.90;;
11245;SDS011;59870;50.106;8.580;2022-08-19T07:27:29;4.80;;;4.33;;
11245;SDS011;59870;50.106;8.580;2022-08-19T07:29:59;3.73;;;3.43;;
11245;SDS011;59870;50.106;8.580;2022-08-19T07:32:27;4.10;;;3.67;;
11245;SDS011;59870;50.106;8.580;2022-08-19T07:34:56;3.30;;;3.00;;
11245;SDS011;59870;50.106;8.580;2022-08-19T07:37:24;5.20;;;3.23;;
11245;SDS011;59870;50.106;8.580;2022-08-19T07:39:59;3.97;;;3.63;;
11245;SDS011;59870;50.106;8.580;2022-08-19T07:42:28;3.50;;;3.20;;
11245;SDS011;59870;50.106;8.580;2022-08-19T07:44:57;3.53;;;3.23;;
11245;SDS011;59870;50.106;8.580;2022-08-19T07:47:25;3.47;;;3.27;;
11245;SDS011;59870;50.106;8.580;2022-08-19T07:50:15;3.43;;;3.13;;
11245;SDS011;59870;50.106;8.580;2022-08-19T07:52:46;3.80;;;3.47;;
11245;SDS011;59870;50.106;8.580;2022-08-19T07:55:18;4.07;;;3.77;;
11245;SDS011;59870;50.106;8.580;2022-08-19T07:58:09;6.27;;;3.77;;
11245;SDS011;59870;50.106;8.580;2022-08-19T08:00:38;4.37;;;3.97;;
11245;SDS011;59870;50.106;8.580;2022-08-19T08:03:06;3.90;;;3.70;;
11245;SDS011;59870;50.106;8.580;2022-08-19T08:05:35;3.53;;;3.30;;
11245;SDS011;59870;50.106;8.580;2022-08-19T08:08:21;4.03;;;3.63;;
11245;SDS011;59870;50.106;8.580;2022-08-19T08:11:14;4.20;;;3.80;;
11245;SDS011;59870;50.106;8.580;2022-08-19T08:13:47;4.47;;;4.17;;
11245;SDS011;59870;50.106;8.580;2022-08-19T08:16:32;3.97;;;3.67;;
11245;SDS011;59870;50.106;8.580;2022-08-19T08:19:06;4.20;;;3.80;;
11245;SDS011;59870;50.106;8.580;2022-08-19T08:21:53;4.53;;;4.13;;
11245;SDS011;59870;50.106;8.580;2022-08-19T08:24:22;4.03;;;3.63;;
11245;SDS011;59870;50.106;8.580;2022-08-19T08:26:55;3.95;;;3.65;;
11245;SDS011;59870;50.106;8.580;2022-08-19T08:29:24;4.32;;;3.58;;
11245;SDS011;59870;50.106;8.580;2022-08-19T08:32:01;4.40;;;4.10;;
11245;SDS011;59870;50.106;8.580;2022-08-19T08:34:40;4.13;;;3.83;;
11245;SDS011;59870;50.106;8.580;2022-08-19T08:37:07;4.00;;;3.70;;
11245;SDS011;59870;50.106;8.580;2022-08-19T08:39:35;4.47;;;4.13;;
11245;SDS011;59870;50.106;8.580;2022-08-19T08:42:07;6.20;;;3.85;;
11245;SDS011;59870;50.106;8.580;2022-08-19T08:44:49;6.23;;;3.60;;
11245;SDS011;59870;50.106;8.580;2022-08-19T08:47:28;4.13;;;3.92;;
11245;SDS011;59870;50.106;8.580;2022-08-19T08:50:06;4.60;;;4.30;;
11245;SDS011;59870;50.106;8.580;2022-08-19T08:52:41;3.60;;;3.30;;
11245;SDS011;59870;50.106;8.580;2022-08-19T08:55:13;3.53;;;3.33;;
11245;SDS011;59870;50.106;8.580;2022-08-19T09:00:29;3.75;;;3.47;;
11245;SDS011;59870;50.106;8.580;2022-08-19T09:02:59;3.80;;;3.50;;
11245;SDS011;59870;50.106;8.580;2022-08-19T09:11:11;4.00;;;3.70;;
11245;SDS011;59870;50.106;8.580;2022-08-19T09:14:30;3.73;;;3.43;;
11245;SDS011;59870;50.106;8.580;2022-08-19T09:17:19;4.88;;;4.00;;
11245;SDS011;59870;50.106;8.580;2022-08-19T09:19:52;5.82;;;3.97;;
11245;SDS011;59870;50.106;8.580;2022-08-19T09:22:22;3.63;;;3.30;;
11245;SDS011;59870;50.106;8.580;2022-08-19T09:24:53;5.03;;;3.53;;
11245;SDS011;59870;50.106;8.580;2022-08-19T09:27:22;4.07;;;3.70;;
11245;SDS011;59870;50.106;8.580;2022-08-19T09:30:16;5.07;;;4.77;;
11245;SDS011;59870;50.106;8.580;2022-08-19T09:32:48;4.88;;;4.55;;
11245;SDS011;59870;50.106;8.580;2022-08-19T09:35:20;5.67;;;5.30;;
11245;SDS011;59870;50.106;8.580;2022-08-19T09:37:50;5.20;;;4.90;;
11245;SDS011;59870;50.106;8.580;2022-08-19T09:40:29;5.28;;;4.97;;
11245;SDS011;59870;50.106;8.580;2022-08-19T09:43:03;5.00;;;4.70;;
11245;SDS011;59870;50.106;8.580;2022-08-19T09:45:39;4.70;;;4.40;;
11245;SDS011;59870;50.106;8.580;2022-08-19T09:48:07;6.78;;;6.07;;
11245;SDS011;59870;50.106;8.580;2022-08-19T09:50:36;6.22;;;5.63;;
11245;SDS011;59870;50.106;8.580;2022-08-19T09:53:18;6.00;;;5.60;;
11245;SDS011;59870;50.106;8.580;2022-08-19T09:55:51;5.05;;;4.75;;
11245;SDS011;59870;50.106;8.580;2022-08-19T09:58:21;4.17;;;3.97;;
11245;SDS011;59870;50.106;8.580;2022-08-19T10:00:54;5.30;;;5.00;;
11245;SDS011;59870;50.106;8.580;2022-08-19T10:03:22;7.13;;;4.88;;
11245;SDS011;59870;50.106;8.580;2022-08-19T10:05:56;4.82;;;4.43;;
11245;SDS011;59870;50.106;8.580;2022-08-19T10:08:27;4.03;;;3.83;;
11245;SDS011;59870;50.106;8.580;2022-08-19T10:10:57;6.88;;;4.97;;
11245;SDS011;59870;50.106;8.580;2022-08-19T10:13:46;7.82;;;7.32;;
11245;SDS011;59870;50.106;8.580;2022-08-19T10:16:16;7.38;;;6.78;;
11245;SDS011;59870;50.106;8.580;2022-08-19T10:18:52;6.38;;;5.88;;
11245;SDS011;59870;50.106;8.580;2022-08-19T10:21:26;7.32;;;6.50;;
11245;SDS011;59870;50.106;8.580;2022-08-19T10:23:59;7.77;;;7.20;;
11245;SDS011;59870;50.106;8.580;2022-08-19T10:26:36;5.32;;;5.03;;
11245;SDS011;59870;50.106;8.580;2022-08-19T10:29:25;5.30;;;5.00;;
11245;SDS011;59870;50.106;8.580;2022-08-19T10:32:03;5.32;;;5.03;;
11245;SDS011;59870;50.106;8.580;2022-08-19T10:34:36;5.65;;;5.25;;
11245;SDS011;59870;50.106;8.580;2022-08-19T10:37:18;6.15;;;5.75;;
11245;SDS011;59870;50.106;8.580;2022-08-19T10:39:55;5.18;;;4.85;;
11245;SDS011;59870;50.106;8.580;2022-08-19T10:42:23;6.10;;;5.80;;
11245;SDS011;59870;50.106;8.580;2022-08-19T10:44:51;6.03;;;5.60;;
11245;SDS011;59870;50.106;8.580;2022-08-19T10:47:18;7.37;;;6.57;;
11245;SDS011;59870;50.106;8.580;2022-08-19T10:49:53;6.70;;;6.15;;
11245;SDS011;59870;50.106;8.580;2022-08-19T10:52:43;6.80;;;6.40;;
11245;SDS011;59870;50.106;8.580;2022-08-19T10:55:20;8.00;;;7.45;;
11245;SDS011;59870;50.106;8.580;2022-08-19T10:58:17;8.10;;;7.60;;
11245;SDS011;59870;50.106;8.580;2022-08-19T11:00:53;7.55;;;7.15;;
11245;SDS011;59870;50.106;8.580;2022-08-19T11:03:24;8.70;;;8.02;;
11245;SDS011;59870;50.106;8.580;2022-08-19T11:06:12;8.07;;;7.55;;
11245;SDS011;59870;50.106;8.580;2022-08-19T11:08:40;9.55;;;8.80;;
11245;SDS011;59870;50.106;8.580;2022-08-19T11:11:11;8.82;;;8.07;;
11245;SDS011;59870;50.106;8.580;2022-08-19T11:13:40;7.82;;;6.70;;
11245;SDS011;59870;50.106;8.580;2022-08-19T11:16:18;6.88;;;6.47;;
11245;SDS011;59870;50.106;8.580;2022-08-19T11:18:49;9.23;;;8.40;;
11245;SDS011;59870;50.106;8.580;2022-08-19T11:21:31;8.57;;;8.02;;
11245;SDS011;59870;50.106;8.580;2022-08-19T11:24:03;8.53;;;7.83;;
11245;SDS011;59870;50.106;8.580;2022-08-19T11:26:33;9.05;;;8.50;;
11245;SDS011;59870;50.106;8.580;2022-08-19T11:29:01;9.50;;;8.67;;
11245;SDS011;59870;50.106;8.580;2022-08-19T11:31:30;8.90;;;8.35;;
11245;SDS011;59870;50.106;8.580;2022-08-19T11:34:02;11.25;;;10.18;;
11245;SDS011;59870;50.106;8.580;2022-08-19T11:36:31;9.68;;;8.73;;
11245;SDS011;59870;50.106;8.580;2022-08-19T11:38:59;9.10;;;8.43;;
11245;SDS011;59870;50.106;8.580;2022-08-19T11:41:28;9.93;;;9.07;;
11245;SDS011;59870;50.106;8.580;2022-08-19T11:43:55;8.40;;;8.00;;
11245;SDS011;59870;50.106;8.580;2022-08-19T11:46:27;8.38;;;7.68;;
11245;SDS011;59870;50.106;8.580;2022-08-19T11:48:56;9.27;;;8.65;;
11245;SDS011;59870;50.106;8.580;2022-08-19T11:51:28;9.30;;;8.60;;
11245;SDS011;59870;50.106;8.580;2022-08-19T11:53:57;8.82;;;8.30;;
11245;SDS011;59870;50.106;8.580;2022-08-19T11:56:26;8.75;;;8.25;;
11245;SDS011;59870;50.106;8.580;2022-08-19T11:58:54;8.13;;;7.53;;
11245;SDS011;59870;50.106;8.580;2022-08-19T12:01:24;8.00;;;7.60;;
11245;SDS011;59870;50.106;8.580;2022-08-19T12:03:53;7.53;;;6.97;;
11245;SDS011;59870;50.106;8.580;2022-08-19T12:06:25;7.05;;;6.65;;
11245;SDS011;59870;50.106;8.580;2022-08-19T12:08:56;7.25;;;6.78;;
11245;SDS011;59870;50.106;8.580;2022-08-19T12:11:27;6.60;;;6.20;;
11245;SDS011;59870;50.106;8.580;2022-08-19T12:13:57;7.65;;;7.05;;
11245;SDS011;59870;50.106;8.580;2022-08-19T12:16:27;7.53;;;6.93;;
11245;SDS011;59870;50.106;8.580;2022-08-19T12:18:56;7.32;;;6.75;;
11245;SDS011;59870;50.106;8.580;2022-08-19T12:21:26;6.43;;;6.07;;
11245;SDS011;59870;50.106;8.580;2022-08-19T12:23:55;8.32;;;6.50;;
11245;SDS011;59870;50.106;8.580;2022-08-19T12:26:25;6.47;;;5.97;;
11245;SDS011;59870;50.106;8.580;2022-08-19T12:28:53;5.72;;;5.30;;
11245;SDS011;59870;50.106;8.580;2022-08-19T12:31:21;4.93;;;4.63;;
11245;SDS011;59870;50.106;8.580;2022-08-19T12:33:49;4.38;;;4.07;;
11245;SDS011;59870;50.106;8.580;2022-08-19T12:36:16;5.65;;;5.32;;
11245;SDS011;59870;50.106;8.580;2022-08-19T12:38:44;5.05;;;4.75;;
11245;SDS011;59870;50.106;8.580;2022-08-19T12:41:14;5.10;;;4.80;;
11245;SDS011;59870;50.106;8.580;2022-08-19T12:43:44;4.83;;;4.43;;
11245;SDS011;59870;50.106;8.580;2022-08-19T12:46:12;4.87;;;4.43;;
11245;SDS011;59870;50.106;8.580;2022-08-19T12:48:42;4.43;;;4.13;;
11245;SDS011;59870;50.106;8.580;2022-08-19T12:51:12;4.68;;;4.35;;
11245;SDS011;59870;50.106;8.580;2022-08-19T12:53:42;3.97;;;3.53;;
11245;SDS011;59870;50.106;8.580;2022-08-19T12:56:11;4.50;;;4.10;;
11245;SDS011;59870;50.106;8.580;2022-08-19T12:58:41;3.90;;;3.60;;
11245;SDS011;59870;50.106;8.580;2022-08-19T13:01:16;4.05;;;3.75;;
11245;SDS011;59870;50.106;8.580;2022-08-19T13:03:49;4.30;;;4.00;;
11245;SDS011;59870;50.106;8.580;2022-08-19T13:06:19;4.55;;;4.18;;
11245;SDS011;59870;50.106;8.580;2022-08-19T13:08:48;5.00;;;3.60;;
11245;SDS011;59870;50.106;8.580;2022-08-19T13:11:16;3.70;;;3.50;;
11245;SDS011;59870;50.106;8.580;2022-08-19T13:13:47;3.63;;;3.33;;
11245;SDS011;59870;50.106;8.580;2022-08-19T13:16:15;4.50;;;3.55;;
11245;SDS011;59870;50.106;8.580;2022-08-19T13:18:45;4.70;;;3.40;;
11245;SDS011;59870;50.106;8.580;2022-08-19T13:21:20;3.35;;;3.15;;
11245;SDS011;59870;50.106;8.580;2022-08-19T13:23:50;2.90;;;2.70;;
11245;SDS011;59870;50.106;8.580;2022-08-19T13:26:18;3.10;;;2.80;;
11245;SDS011;59870;50.106;8.580;2022-08-19T13:28:47;3.40;;;3.10;;
11245;SDS011;59870;50.106;8.580;2022-08-19T13:31:34;3.10;;;2.90;;
11245;SDS011;59870;50.106;8.580;2022-08-19T13:34:28;4.37;;;3.30;;
11245;SDS011;59870;50.106;8.580;2022-08-19T13:37:01;3.67;;;3.30;;
11245;SDS011;59870;50.106;8.580;2022-08-19T13:39:32;4.50;;;3.40;;
11245;SDS011;59870;50.106;8.580;2022-08-19T13:42:02;3.30;;;3.03;;
11245;SDS011;59870;50.106;8.580;2022-08-19T13:44:31;3.70;;;3.15;;
11245;SDS011;59870;50.106;8.580;2022-08-19T13:47:02;2.92;;;2.72;;
11245;SDS011;59870;50.106;8.580;2022-08-19T13:49:34;3.13;;;2.65;;
11245;SDS011;59870;50.106;8.580;2022-08-19T13:52:05;5.00;;;3.17;;
11245;SDS011;59870;50.106;8.580;2022-08-19T13:54:32;3.80;;;3.50;;
11245;SDS011;59870;50.106;8.580;2022-08-19T13:57:00;3.40;;;3.20;;
11245;SDS011;59870;50.106;8.580;2022-08-19T13:59:28;3.30;;;3.03;;
11245;SDS011;59870;50.106;8.580;2022-08-19T14:01:59;3.20;;;3.00;;
11245;SDS011;59870;50.106;8.580;2022-08-19T14:04:27;3.20;;;3.00;;
11245;SDS011;59870;50.106;8.580;2022-08-19T14:06:55;3.93;;;2.73;;
11245;SDS011;59870;50.106;8.580;2022-08-19T14:09:23;2.63;;;2.53;;
11245;SDS011;59870;50.106;8.580;2022-08-19T14:11:51;4.43;;;3.40;;
11245;SDS011;59870;50.106;8.580;2022-08-19T14:14:18;4.03;;;2.92;;
11245;SDS011;59870;50.106;8.580;2022-08-19T14:16:45;3.08;;;2.88;;
11245;SDS011;59870;50.106;8.580;2022-08-19T14:19:13;2.78;;;2.58;;
11245;SDS011;59870;50.106;8.580;2022-08-19T14:21:41;2.85;;;2.75;;
11245;SDS011;59870;50.106;8.580;2022-08-19T14:24:09;4.00;;;2.72;;
11245;SDS011;59870;50.106;8.580;2022-08-19T14:26:36;2.88;;;2.67;;
11245;SDS011;59870;50.106;8.580;2022-08-19T14:29:04;2.72;;;2.63;;
11245;SDS011;59870;50.106;8.580;2022-08-19T14:31:31;2.88;;;2.67;;
11245;SDS011;59870;50.106;8.580;2022-08-19T14:33:59;2.55;;;2.45;;
11245;SDS011;59870;50.106;8.580;2022-08-19T14:36:26;2.80;;;2.70;;
11245;SDS011;59870;50.106;8.580;2022-08-19T14:38:54;3.10;;;2.90;;
11245;SDS011;59870;50.106;8.580;2022-08-19T14:41:22;2.97;;;2.88;;
11245;SDS011;59870;50.106;8.580;2022-08-19T14:43:51;3.28;;;3.08;;
11245;SDS011;59870;50.106;8.580;2022-08-19T14:46:21;3.00;;;2.80;;
11245;SDS011;59870;50.106;8.580;2022-08-19T14:48:55;3.38;;;2.90;;
11245;SDS011;59870;50.106;8.580;2022-08-19T14:51:25;2.97;;;2.85;;
11245;SDS011;59870;50.106;8.580;2022-08-19T14:53:53;3.95;;;3.00;;
11245;SDS011;59870;50.106;8.580;2022-08-19T14:56:23;3.25;;;2.60;;
11245;SDS011;59870;50.106;8.580;2022-08-19T14:58:53;2.95;;;2.75;;
11245;SDS011;59870;50.106;8.580;2022-08-19T15:01:21;5.30;;;3.05;;
11245;SDS011;59870;50.106;8.580;2022-08-19T15:03:50;2.80;;;2.70;;
11245;SDS011;59870;50.106;8.580;2022-08-19T15:06:19;3.00;;;2.80;;
11245;SDS011;59870;50.106;8.580;2022-08-19T15:08:48;3.30;;;3.00;;
11245;SDS011;59870;50.106;8.580;2022-08-19T15:11:19;8.70;;;2.78;;
11245;SDS011;59870;50.106;8.580;2022-08-19T15:13:49;2.60;;;2.50;;
11245;SDS011;59870;50.106;8.580;2022-08-19T15:16:17;2.58;;;2.47;;
11245;SDS011;59870;50.106;8.580;2022-08-19T15:18:46;2.80;;;2.58;;
11245;SDS011;59870;50.106;8.580;2022-08-19T15:21:16;3.40;;;3.10;;
11245;SDS011;59870;50.106;8.580;2022-08-19T15:23:54;3.42;;;3.17;;
11245;SDS011;59870;50.106;8.580;2022-08-19T15:26:23;3.40;;;3.20;;
11245;SDS011;59870;50.106;8.580;2022-08-19T15:28:55;3.03;;;2.70;;